Time;durP1;ratioP1;P1;durP2;ratioP2;P2;SDS_P1;SDS_P2;PMS_P1;PMS_P2;Temp;Humidity;BMP_temperature;BMP_pressure;BME280_temperature;BME280_humidity;BME280_pressure;Samples;Min_cycle;Max_cycle;Signal;HPM_P1;HPM_P2
2022/05/25 00:01:48;;;;;;;2.08;0.50;;;21.30;79.40;;;;;;5103567;27;45854;-66
2022/05/25 00:04:15;;;;;;;1.88;0.50;;;21.30;79.10;;;;;;5100641;27;45266;-66
2022/05/25 00:06:42;;;;;;;0.98;0.57;;;21.30;78.90;;;;;;5099203;27;45346;-66
2022/05/25 00:09:08;;;;;;;1.30;0.50;;;21.30;79.10;;;;;;5108501;27;46158;-66
2022/05/25 00:11:35;;;;;;;1.33;0.50;;;21.20;79.30;;;;;;5106825;27;45739;-65
2022/05/25 00:14:04;;;;;;;0.70;0.40;;;21.30;79.70;;;;;;5108407;27;45171;-66
2022/05/25 00:16:31;;;;;;;1.20;0.50;;;21.20;79.20;;;;;;5104781;27;45335;-66
2022/05/25 00:21:42;;;;;;;1.20;0.50;;;21.20;79.20;;;;;;5104838;27;45411;-66
2022/05/25 00:24:09;;;;;;;1.88;0.70;;;21.20;79.20;;;;;;5108124;27;45239;-66
2022/05/25 00:26:36;;;;;;;1.98;0.52;;;21.20;79.20;;;;;;5106661;27;45239;-66
2022/05/25 00:29:05;;;;;;;2.40;0.63;;;21.20;79.20;;;;;;5108853;27;46566;-66
2022/05/25 00:31:32;;;;;;;0.73;0.50;;;21.20;79.20;;;;;;5108338;27;45284;-66
2022/05/25 00:33:59;;;;;;;1.90;0.90;;;21.20;79.30;;;;;;5105615;27;45488;-66
2022/05/25 00:36:27;;;;;;;1.77;0.50;;;21.20;80.50;;;;;;5108388;27;45580;-65
2022/05/25 00:38:53;;;;;;;0.95;0.60;;;21.20;79.20;;;;;;5109359;27;45941;-66
2022/05/25 00:41:23;;;;;;;1.55;0.50;;;21.30;79.40;;;;;;5107221;27;46319;-66
2022/05/25 00:43:50;;;;;;;1.45;0.65;;;21.20;79.30;;;;;;5110021;27;45818;-66
2022/05/25 00:46:21;;;;;;;2.72;0.60;;;21.20;79.20;;;;;;5109326;27;45194;-66
2022/05/25 00:48:51;;;;;;;1.10;0.60;;;21.20;78.80;;;;;;5105892;27;48814;-67
2022/05/25 00:51:24;;;;;;;1.92;0.88;;;21.20;78.50;;;;;;5108240;27;45564;-66
2022/05/25 00:53:54;;;;;;;3.85;0.75;;;21.20;78.40;;;;;;5107418;27;45471;-65
2022/05/25 00:56:23;;;;;;;2.28;0.65;;;21.20;79.20;;;;;;5107844;27;45156;-66
2022/05/25 00:58:57;;;;;;;0.80;0.50;;;21.30;78.50;;;;;;5105837;27;46095;-66
2022/05/25 01:01:28;;;;;;;0.77;0.60;;;21.20;78.50;;;;;;5102540;27;45368;-66
2022/05/25 01:03:55;;;;;;;1.85;0.60;;;21.20;78.40;;;;;;5106525;27;45974;-66
2022/05/25 01:06:37;;;;;;;2.45;0.80;;;21.30;78.50;;;;;;5105130;27;46166;-66
2022/05/25 01:09:13;;;;;;;4.45;0.63;;;21.20;78.50;;;;;;5107046;27;47363;-66
2022/05/25 01:11:51;;;;;;;3.60;0.40;;;21.20;78.40;;;;;;5108284;27;45671;-66
2022/05/25 01:14:33;;;;;;;2.30;0.75;;;21.20;78.30;;;;;;5105840;27;45302;-66
2022/05/25 01:17:15;;;;;;;1.00;0.70;;;21.20;78.40;;;;;;5108301;27;45267;-65
2022/05/25 01:20:02;;;;;;;1.15;0.60;;;21.20;78.30;;;;;;5107175;27;45426;-66
2022/05/25 01:23:20;;;;;;;2.53;0.93;;;21.20;78.40;;;;;;5103638;27;46378;-66
2022/05/25 01:26:15;;;;;;;2.03;0.50;;;21.20;79.40;;;;;;5090585;27;45257;-66
2022/05/25 01:29:05;;;;;;;0.45;0.43;;;21.20;78.60;;;;;;5107093;27;45470;-66
2022/05/25 01:31:39;;;;;;;3.50;0.77;;;21.20;78.60;;;;;;5088484;27;46517;-66
2022/05/25 01:34:11;;;;;;;1.00;0.73;;;21.20;78.60;;;;;;5108242;27;45309;-65
2022/05/25 01:36:45;;;;;;;0.57;0.50;;;21.10;78.70;;;;;;5107756;27;45678;-66
2022/05/25 01:39:18;;;;;;;2.47;0.80;;;21.10;78.60;;;;;;5105633;27;45316;-66
2022/05/25 01:41:53;;;;;;;0.75;0.68;;;21.20;78.50;;;;;;5108685;27;47832;-66
2022/05/25 01:44:24;;;;;;;0.60;0.45;;;21.10;78.20;;;;;;5104995;27;45307;-66
2022/05/25 01:46:55;;;;;;;1.60;0.60;;;21.20;78.60;;;;;;5106807;27;45314;-66
2022/05/25 01:49:27;;;;;;;1.35;0.50;;;21.20;78.40;;;;;;5106090;27;45292;-66
2022/05/25 01:51:58;;;;;;;1.88;0.73;;;21.20;78.20;;;;;;5104620;27;45354;-66
2022/05/25 01:54:29;;;;;;;2.28;0.55;;;21.20;77.60;;;;;;5100491;27;45323;-66
2022/05/25 01:56:59;;;;;;;0.68;0.45;;;21.20;78.60;;;;;;5108164;27;45193;-66
2022/05/25 01:59:26;;;;;;;1.30;0.60;;;21.20;77.90;;;;;;5106143;27;45589;-66
2022/05/25 02:04:39;;;;;;;0.70;0.60;;;21.20;77.80;;;;;;5102147;27;45338;-66
2022/05/25 02:07:15;;;;;;;1.70;0.60;;;21.20;77.70;;;;;;5102217;27;45169;-66
2022/05/25 02:09:59;;;;;;;2.00;0.50;;;21.20;78.00;;;;;;5105856;27;45155;-66
2022/05/25 02:12:41;;;;;;;1.58;0.65;;;21.20;77.80;;;;;;5097416;27;47342;-65
2022/05/25 02:15:16;;;;;;;0.90;0.70;;;21.20;77.50;;;;;;5107286;27;46335;-66
2022/05/25 02:17:52;;;;;;;2.35;0.70;;;21.20;77.50;;;;;;5103726;27;45326;-66
2022/05/25 02:20:25;;;;;;;1.50;0.57;;;21.20;77.30;;;;;;5093984;27;45239;-66
2022/05/25 02:22:57;;;;;;;1.15;0.70;;;21.20;77.40;;;;;;5104503;27;47077;-66
2022/05/25 02:25:29;;;;;;;1.15;0.80;;;21.20;77.70;;;;;;5108006;27;45463;-66
2022/05/25 02:28:07;;;;;;;0.73;0.60;;;21.10;77.50;;;;;;5108218;27;45155;-66
2022/05/25 02:30:38;;;;;;;1.00;0.60;;;21.10;77.60;;;;;;5104113;27;45385;-66
2022/05/25 02:33:13;;;;;;;1.85;0.80;;;21.20;77.80;;;;;;5106645;27;47182;-66
2022/05/25 02:35:42;;;;;;;0.77;0.50;;;21.20;78.40;;;;;;5106422;27;45314;-66
2022/05/25 02:38:10;;;;;;;1.05;0.63;;;21.20;77.70;;;;;;5105556;27;45330;-66
2022/05/25 02:40:39;;;;;;;1.48;0.70;;;21.10;78.10;;;;;;5107063;27;45504;-65
2022/05/25 02:43:07;;;;;;;1.05;0.52;;;21.10;77.50;;;;;;5107236;27;48676;-66
2022/05/25 02:45:35;;;;;;;0.85;0.60;;;21.10;77.30;;;;;;5105763;27;45257;-66
2022/05/25 02:48:02;;;;;;;0.80;0.50;;;21.10;77.20;;;;;;5105991;27;45472;-66
2022/05/25 02:50:30;;;;;;;2.13;0.75;;;21.10;77.50;;;;;;5103933;27;45851;-66
2022/05/25 02:52:57;;;;;;;0.82;0.68;;;21.10;76.60;;;;;;5106738;27;46017;-66
2022/05/25 02:55:24;;;;;;;2.00;0.65;;;21.10;77.00;;;;;;5106407;27;45266;-66
2022/05/25 02:57:51;;;;;;;2.63;0.80;;;21.10;77.00;;;;;;5106140;27;45271;-65
2022/05/25 03:00:18;;;;;;;1.17;0.77;;;21.10;77.20;;;;;;5104345;27;45275;-66
2022/05/25 03:02:45;;;;;;;1.60;0.80;;;21.10;76.90;;;;;;5107789;27;46225;-66
2022/05/25 03:05:13;;;;;;;1.33;0.65;;;21.20;77.10;;;;;;5109953;27;45301;-66
2022/05/25 03:07:41;;;;;;;1.13;0.63;;;21.20;76.80;;;;;;5111584;27;45299;-66
2022/05/25 03:10:09;;;;;;;0.95;0.60;;;21.10;77.00;;;;;;5113356;27;45226;-66
2022/05/25 03:12:36;;;;;;;0.93;0.50;;;21.20;76.80;;;;;;5111961;27;45242;-66
2022/05/25 03:15:03;;;;;;;1.20;0.70;;;21.10;76.80;;;;;;5113581;27;45995;-66
2022/05/25 03:17:30;;;;;;;1.08;0.60;;;21.10;76.60;;;;;;5111269;27;45453;-66
2022/05/25 03:19:58;;;;;;;1.73;0.70;;;21.30;76.40;;;;;;5113161;27;45407;-66
2022/05/25 03:22:25;;;;;;;3.60;0.60;;;21.20;76.80;;;;;;5107566;27;45415;-66
2022/05/25 03:24:53;;;;;;;1.17;0.70;;;21.10;76.30;;;;;;5110444;27;45388;-66
2022/05/25 03:27:20;;;;;;;1.05;0.60;;;21.10;76.30;;;;;;5113828;27;45294;-66
2022/05/25 03:29:47;;;;;;;1.02;0.60;;;21.10;76.00;;;;;;5112764;27;45192;-66
2022/05/25 03:32:14;;;;;;;1.17;0.47;;;21.10;76.20;;;;;;5112303;27;45337;-66
2022/05/25 03:34:41;;;;;;;2.03;0.70;;;21.10;76.30;;;;;;5104399;27;46663;-66
2022/05/25 03:37:07;;;;;;;1.00;0.57;;;21.10;76.60;;;;;;5113943;27;45171;-66
2022/05/25 03:39:35;;;;;;;1.52;0.90;;;21.10;76.40;;;;;;5109983;27;45206;-66
2022/05/25 03:42:07;;;;;;;3.40;0.73;;;21.10;76.30;;;;;;5112654;27;46197;-66
2022/05/25 03:44:34;;;;;;;2.30;0.80;;;21.10;75.90;;;;;;5112594;27;45450;-66
2022/05/25 03:47:01;;;;;;;0.80;0.52;;;21.10;76.60;;;;;;5110672;27;45453;-66
2022/05/25 03:49:28;;;;;;;1.75;0.85;;;21.10;76.90;;;;;;5112711;27;45361;-66
2022/05/25 03:51:55;;;;;;;3.85;0.70;;;21.00;76.20;;;;;;5113195;27;46271;-66
2022/05/25 03:54:22;;;;;;;1.73;0.73;;;21.10;76.80;;;;;;5112449;27;45199;-66
2022/05/25 03:56:49;;;;;;;1.80;0.88;;;21.10;76.40;;;;;;5114027;27;45299;-66
2022/05/25 03:59:17;;;;;;;2.53;0.82;;;21.10;76.00;;;;;;5109433;27;45576;-66
2022/05/25 04:01:44;;;;;;;2.08;0.70;;;21.10;75.90;;;;;;5112137;27;45592;-66
2022/05/25 04:04:11;;;;;;;0.93;0.70;;;21.10;76.00;;;;;;5111705;27;45365;-66
2022/05/25 04:06:38;;;;;;;2.30;0.90;;;21.10;75.60;;;;;;5110986;27;45398;-66
2022/05/25 04:09:05;;;;;;;1.20;0.70;;;21.10;75.70;;;;;;5110097;27;45708;-66
2022/05/25 04:11:32;;;;;;;2.35;0.90;;;21.10;75.70;;;;;;5111830;27;47146;-66
2022/05/25 04:14:00;;;;;;;6.30;0.93;;;21.10;76.20;;;;;;5099806;27;45499;-66
2022/05/25 04:16:28;;;;;;;3.38;0.82;;;21.10;75.90;;;;;;5311559;22;45763;-65
2022/05/25 04:18:55;;;;;;;5.95;0.80;;;21.10;75.60;;;;;;5127935;27;45587;-65
2022/05/25 04:21:22;;;;;;;4.45;1.05;;;21.10;75.40;;;;;;5127737;27;46272;-65
2022/05/25 04:23:49;;;;;;;1.83;0.80;;;21.10;75.40;;;;;;5128553;27;45302;-66
2022/05/25 04:26:16;;;;;;;3.50;0.90;;;21.10;75.80;;;;;;5126825;27;45431;-66
2022/05/25 04:28:43;;;;;;;1.50;0.80;;;21.10;75.60;;;;;;5125774;27;45499;-66
2022/05/25 04:31:10;;;;;;;1.42;1.00;;;21.10;75.60;;;;;;5119992;27;45171;-66
2022/05/25 04:33:40;;;;;;;1.83;0.80;;;21.10;75.60;;;;;;5130153;27;45209;-66
2022/05/25 04:36:07;;;;;;;1.75;0.75;;;21.10;76.00;;;;;;5129314;27;45377;-66
2022/05/25 04:38:34;;;;;;;1.00;0.75;;;21.10;75.80;;;;;;5118634;27;45237;-66
2022/05/25 04:41:03;;;;;;;1.65;1.00;;;21.10;75.90;;;;;;5130499;27;45314;-66
2022/05/25 04:43:30;;;;;;;2.75;0.82;;;21.10;75.70;;;;;;5121167;27;45603;-66
2022/05/25 04:45:59;;;;;;;2.20;1.00;;;21.10;75.40;;;;;;5128970;27;45227;-66
2022/05/25 04:48:26;;;;;;;2.63;1.10;;;21.10;75.70;;;;;;5116244;27;45313;-66
2022/05/25 04:50:57;;;;;;;1.30;0.95;;;21.10;75.20;;;;;;5110771;27;45466;-66
2022/05/25 04:53:24;;;;;;;1.92;0.90;;;21.10;75.30;;;;;;5116877;27;45124;-66
2022/05/25 04:58:37;;;;;;;2.47;1.00;;;21.10;76.10;;;;;;5127066;27;45389;-66
2022/05/25 05:01:06;;;;;;;3.35;0.90;;;21.10;75.60;;;;;;5128276;27;45479;-66
2022/05/25 05:03:33;;;;;;;1.83;0.70;;;21.10;75.60;;;;;;5127937;27;45190;-66
2022/05/25 05:06:03;;;;;;;2.42;0.88;;;21.10;75.60;;;;;;5116250;27;45351;-66
2022/05/25 05:08:30;;;;;;;2.15;0.85;;;21.10;75.60;;;;;;5112323;27;45448;-65
2022/05/25 05:10:58;;;;;;;4.30;0.85;;;21.10;75.60;;;;;;5124509;27;47368;-65
2022/05/25 05:13:25;;;;;;;2.38;0.95;;;21.10;75.50;;;;;;5126932;27;45280;-66
2022/05/25 05:15:54;;;;;;;2.63;0.85;;;21.10;75.60;;;;;;5123090;27;45290;-65
2022/05/25 05:18:23;;;;;;;1.15;0.85;;;21.10;75.40;;;;;;5109978;27;45342;-66
2022/05/25 05:20:50;;;;;;;1.48;0.80;;;21.10;75.30;;;;;;5127720;27;45485;-66
2022/05/25 05:23:18;;;;;;;2.38;0.73;;;21.10;75.40;;;;;;5120907;27;46466;-66
2022/05/25 05:25:45;;;;;;;2.30;1.05;;;21.10;75.60;;;;;;5118383;27;45511;-66
2022/05/25 05:28:15;;;;;;;1.77;0.70;;;21.10;75.40;;;;;;5113691;27;45578;-66
2022/05/25 05:30:48;;;;;;;1.80;1.10;;;21.10;75.60;;;;;;5121788;27;47897;-66
2022/05/25 05:33:14;;;;;;;1.70;0.93;;;21.10;75.80;;;;;;5123973;27;45270;-66
2022/05/25 05:35:42;;;;;;;3.13;1.10;;;21.10;75.90;;;;;;5130012;27;45508;-66
2022/05/25 05:38:09;;;;;;;1.60;0.98;;;21.10;75.70;;;;;;5124759;27;45524;-66
2022/05/25 05:40:38;;;;;;;1.42;0.80;;;21.10;75.70;;;;;;5119171;27;46192;-66
2022/05/25 05:43:06;;;;;;;2.67;1.42;;;21.10;75.80;;;;;;5119558;27;45423;-66
2022/05/25 05:45:37;;;;;;;2.35;1.15;;;21.10;75.80;;;;;;5115158;27;45294;-65
2022/05/25 05:48:09;;;;;;;2.70;1.17;;;21.10;75.90;;;;;;5125582;27;45214;-66
2022/05/25 05:50:38;;;;;;;2.17;1.10;;;21.10;75.70;;;;;;5120520;27;45266;-65
2022/05/25 05:53:06;;;;;;;1.85;1.00;;;21.10;76.00;;;;;;5125925;27;45433;-65
2022/05/25 05:55:34;;;;;;;2.30;1.00;;;21.10;75.90;;;;;;5113599;27;45371;-65
2022/05/25 05:58:02;;;;;;;2.75;1.20;;;21.10;75.90;;;;;;5113399;27;45427;-66
2022/05/25 06:00:29;;;;;;;2.78;1.30;;;21.10;75.90;;;;;;5122399;27;48182;-63
2022/05/25 06:02:55;;;;;;;2.67;1.30;;;21.10;75.50;;;;;;5125138;27;45657;-65
2022/05/25 06:05:22;;;;;;;1.77;1.02;;;21.10;76.00;;;;;;5122265;27;45252;-65
2022/05/25 06:07:49;;;;;;;3.95;1.20;;;21.10;75.90;;;;;;5120416;27;45298;-65
2022/05/25 06:10:16;;;;;;;6.68;1.40;;;21.10;75.60;;;;;;5115050;27;46247;-65
2022/05/25 06:12:43;;;;;;;2.75;1.00;;;21.20;75.40;;;;;;5122161;27;45143;-65
2022/05/25 06:20:40;;;;;;;1.35;0.90;;;21.20;75.40;;;;;;5116292;27;45233;-65
2022/05/25 06:23:07;;;;;;;2.53;0.90;;;21.20;75.20;;;;;;5124895;27;45514;-65
2022/05/25 06:25:33;;;;;;;2.78;1.00;;;21.20;75.20;;;;;;5126324;27;45323;-65
2022/05/25 06:28:00;;;;;;;3.70;0.88;;;21.20;75.20;;;;;;5121782;27;45430;-65
2022/05/25 06:30:28;;;;;;;4.47;0.90;;;21.20;75.50;;;;;;5120643;27;46590;-65
2022/05/25 06:32:55;;;;;;;1.52;0.70;;;21.10;75.60;;;;;;5124378;27;45267;-65
2022/05/25 06:35:22;;;;;;;2.92;1.00;;;21.10;75.50;;;;;;5119985;27;45245;-65
2022/05/25 06:37:49;;;;;;;0.88;0.63;;;21.10;75.60;;;;;;5121484;27;45364;-65
2022/05/25 06:40:16;;;;;;;1.73;0.98;;;21.10;75.60;;;;;;5120727;27;47922;-65
2022/05/25 06:42:43;;;;;;;1.65;0.82;;;21.10;75.70;;;;;;5124615;27;46295;-65
2022/05/25 06:45:10;;;;;;;1.42;0.70;;;21.10;75.40;;;;;;5124809;27;45302;-65
2022/05/25 06:47:39;;;;;;;1.63;0.65;;;21.10;75.20;;;;;;5122610;27;45219;-65
2022/05/25 06:50:07;;;;;;;1.65;0.80;;;21.10;75.40;;;;;;5113756;27;45874;-65
2022/05/25 06:52:34;;;;;;;1.60;0.68;;;21.10;76.30;;;;;;5126527;27;45246;-65
2022/05/25 06:55:01;;;;;;;1.88;0.60;;;21.10;75.20;;;;;;5125386;27;45234;-65
2022/05/25 06:57:28;;;;;;;2.20;0.80;;;21.10;75.10;;;;;;5118656;27;45326;-64
2022/05/25 06:59:56;;;;;;;2.03;0.70;;;21.10;75.40;;;;;;5115921;27;46340;-64
2022/05/25 07:02:24;;;;;;;1.23;0.65;;;21.10;75.30;;;;;;5123014;27;45201;-65
2022/05/25 07:04:53;;;;;;;3.70;0.80;;;21.10;75.20;;;;;;5115799;27;45470;-64
2022/05/25 07:07:20;;;;;;;1.83;0.65;;;21.10;75.00;;;;;;5119777;27;45419;-64
2022/05/25 07:09:47;;;;;;;2.15;0.80;;;21.10;75.00;;;;;;5112886;27;47835;-64
2022/05/25 07:12:14;;;;;;;0.75;0.38;;;21.10;75.10;;;;;;5124237;27;45327;-64
2022/05/25 07:14:41;;;;;;;1.60;0.70;;;21.10;74.70;;;;;;5119304;27;45224;-63
2022/05/25 07:17:08;;;;;;;4.78;0.90;;;21.20;75.80;;;;;;5125967;27;45362;-64
2022/05/25 07:19:35;;;;;;;6.53;1.02;;;21.20;77.30;;;;;;5125939;27;45719;-65
2022/05/25 07:22:08;;;;;;;3.85;0.98;;;21.30;80.50;;;;;;5116666;27;45974;-65
2022/05/25 07:24:35;;;;;;;2.85;0.63;;;21.30;84.20;;;;;;5121548;27;45248;-68
2022/05/25 07:27:02;;;;;;;2.35;0.60;;;21.20;82.10;;;;;;5116801;27;46141;-68
2022/05/25 07:29:28;;;;;;;2.83;0.80;;;21.10;81.10;;;;;;5112077;27;47037;-69
2022/05/25 07:32:01;;;;;;;1.48;0.50;;;21.10;80.10;;;;;;5123132;27;45364;-68
2022/05/25 07:34:31;;;;;;;2.60;0.70;;;21.10;80.10;;;;;;5116772;27;45310;-68
2022/05/25 07:37:02;;;;;;;2.00;0.75;;;21.00;80.50;;;;;;5120476;27;45370;-68
2022/05/25 07:39:36;;;;;;;3.80;0.47;;;21.00;81.70;;;;;;5118717;27;48050;-69
2022/05/25 07:42:05;;;;;;;0.73;0.45;;;21.00;81.90;;;;;;5134338;27;45213;-68
2022/05/25 07:44:35;;;;;;;2.17;0.77;;;21.00;83.40;;;;;;5117068;27;45515;-68
2022/05/25 07:47:02;;;;;;;1.83;0.40;;;21.00;84.00;;;;;;5127048;27;45533;-68
2022/05/25 07:49:29;;;;;;;0.77;0.38;;;21.00;84.20;;;;;;5125898;27;46385;-69
2022/05/25 07:51:57;;;;;;;1.45;0.70;;;21.00;85.20;;;;;;5111108;27;45610;-69
2022/05/25 07:54:24;;;;;;;2.33;0.73;;;21.00;85.10;;;;;;5112466;27;45226;-68
2022/05/25 07:56:53;;;;;;;1.40;0.50;;;21.00;87.20;;;;;;5134920;27;45241;-69
2022/05/25 07:59:20;;;;;;;2.80;0.50;;;21.00;87.60;;;;;;5131441;27;45274;-68
2022/05/25 08:07:26;;;;;;;1.33;0.40;;;21.10;86.10;;;;;;5138260;27;45308;-68
2022/05/25 08:09:56;;;;;;;1.60;0.70;;;21.10;86.60;;;;;;5130569;27;46174;-69
2022/05/25 08:12:25;;;;;;;0.73;0.40;;;21.10;88.90;;;;;;5123205;27;45680;-69
2022/05/25 08:14:52;;;;;;;0.82;0.45;;;21.10;88.00;;;;;;5109305;27;45674;-69
2022/05/25 08:17:20;;;;;;;1.35;0.35;;;21.10;89.10;;;;;;5142218;27;45383;-68
2022/05/25 08:19:47;;;;;;;1.45;0.30;;;21.10;88.20;;;;;;5151602;27;46333;-69
2022/05/25 08:22:13;;;;;;;0.75;0.38;;;21.10;90.10;;;;;;5128333;27;45316;-69
2022/05/25 08:24:40;;;;;;;1.63;0.50;;;21.10;90.00;;;;;;5126233;27;45242;-69
2022/05/25 08:27:07;;;;;;;0.57;0.43;;;21.10;90.30;;;;;;5113553;27;45419;-69
2022/05/25 08:29:35;;;;;;;1.40;0.43;;;21.10;90.60;;;;;;5124024;27;46164;-69
2022/05/25 08:32:02;;;;;;;0.70;0.30;;;21.10;91.00;;;;;;5124204;27;45881;-70
2022/05/25 08:34:31;;;;;;;1.90;0.60;;;21.10;91.00;;;;;;5121686;27;46093;-69
2022/05/25 08:36:58;;;;;;;0.63;0.35;;;21.00;90.60;;;;;;5116479;27;45149;-69
2022/05/25 08:39:25;;;;;;;0.73;0.40;;;21.00;91.20;;;;;;5122912;27;46295;-68
2022/05/25 08:41:54;;;;;;;0.85;0.30;;;21.00;90.60;;;;;;5124323;27;45329;-69
2022/05/25 08:44:23;;;;;;;1.63;0.38;;;21.00;90.20;;;;;;5119349;27;46455;-69
2022/05/25 08:46:56;;;;;;;1.25;0.40;;;21.00;90.50;;;;;;5122536;27;45648;-69
2022/05/25 08:49:25;;;;;;;0.68;0.40;;;21.00;90.10;;;;;;5120479;27;48171;-69
2022/05/25 08:51:55;;;;;;;1.25;0.60;;;21.00;90.80;;;;;;5129801;27;45259;-68
2022/05/25 08:54:25;;;;;;;2.08;0.60;;;21.10;90.40;;;;;;5130864;27;45170;-69
2022/05/25 08:56:58;;;;;;;3.80;0.57;;;21.00;91.10;;;;;;5110259;27;45513;-69
2022/05/25 08:59:27;;;;;;;1.15;0.40;;;21.00;91.40;;;;;;5119702;27;46498;-69
2022/05/25 09:01:58;;;;;;;2.50;0.30;;;21.00;91.60;;;;;;5109684;27;45267;-69
2022/05/25 09:04:34;;;;;;;0.98;0.50;;;21.00;91.70;;;;;;5111023;27;45184;-69
2022/05/25 09:07:09;;;;;;;0.80;0.40;;;21.00;91.60;;;;;;5115635;27;45264;-69
2022/05/25 09:09:39;;;;;;;0.90;0.25;;;21.10;91.70;;;;;;5129676;27;45266;-69
2022/05/25 09:12:10;;;;;;;0.80;0.40;;;21.10;91.70;;;;;;5117294;27;45846;-69
2022/05/25 09:14:42;;;;;;;0.82;0.30;;;21.00;91.60;;;;;;5114114;27;45357;-69
2022/05/25 09:17:17;;;;;;;1.17;0.32;;;21.10;91.50;;;;;;5109083;27;45185;-69
2022/05/25 09:19:47;;;;;;;0.32;0.30;;;21.10;91.80;;;;;;5109765;27;48048;-69
2022/05/25 09:22:18;;;;;;;0.93;0.30;;;21.10;91.20;;;;;;5122108;27;45266;-69
2022/05/25 09:24:47;;;;;;;0.65;0.20;;;21.10;91.40;;;;;;5109831;27;45215;-69
2022/05/25 09:27:17;;;;;;;0.30;0.30;;;21.10;91.60;;;;;;5110129;27;45493;-69
2022/05/25 09:29:44;;;;;;;2.10;0.40;;;21.00;90.40;;;;;;5121333;27;48327;-69
2022/05/25 09:32:33;;;;;;;0.20;0.20;;;21.00;91.60;;;;;;5121325;27;45205;-69
2022/05/25 09:35:04;;;;;;;0.57;0.30;;;21.00;91.80;;;;;;5109579;27;45327;-69
2022/05/25 09:37:36;;;;;;;0.85;0.30;;;21.00;91.40;;;;;;5112159;27;45579;-69
2022/05/25 09:40:07;;;;;;;0.50;0.30;;;21.00;91.30;;;;;;5125452;27;47473;-69
2022/05/25 09:42:37;;;;;;;0.85;0.30;;;21.00;91.90;;;;;;5113553;27;45245;-69
2022/05/25 09:45:09;;;;;;;0.30;0.22;;;21.00;91.80;;;;;;5112055;27;45329;-69
2022/05/25 09:47:42;;;;;;;0.93;0.40;;;21.00;92.20;;;;;;5114213;27;45418;-69
2022/05/25 09:50:16;;;;;;;0.95;0.30;;;21.00;91.80;;;;;;5127619;27;48249;-69
2022/05/25 09:52:47;;;;;;;1.05;0.30;;;20.90;91.90;;;;;;5130267;27;45193;-69
2022/05/25 09:55:20;;;;;;;2.33;0.50;;;21.00;91.80;;;;;;5129453;27;45261;-69
2022/05/25 09:57:55;;;;;;;1.45;0.32;;;20.90;91.50;;;;;;5126171;27;45217;-69
2022/05/25 10:00:23;;;;;;;2.97;0.40;;;20.90;91.80;;;;;;5105240;27;45484;-69
2022/05/25 10:02:59;;;;;;;0.30;0.25;;;20.90;91.60;;;;;;5107741;27;45648;-69
2022/05/25 10:05:28;;;;;;;0.20;0.20;;;21.00;91.20;;;;;;5109937;27;45274;-69
2022/05/25 10:08:00;;;;;;;0.47;0.20;;;21.00;91.50;;;;;;5126519;27;45464;-69
2022/05/25 10:10:33;;;;;;;1.42;0.45;;;21.00;91.90;;;;;;5108596;27;47338;-69
2022/05/25 10:13:03;;;;;;;0.10;0.10;;;21.00;91.80;;;;;;5119430;27;45226;-69
2022/05/25 10:15:33;;;;;;;0.47;0.22;;;21.00;91.80;;;;;;5108494;27;45212;-69
2022/05/25 10:18:02;;;;;;;0.25;0.20;;;21.00;91.70;;;;;;5109500;27;45221;-69
2022/05/25 10:20:30;;;;;;;0.17;0.17;;;21.00;91.60;;;;;;5114472;27;45246;-69
2022/05/25 10:23:07;;;;;;;0.25;0.20;;;21.10;91.60;;;;;;5107636;27;45186;-69
2022/05/25 10:25:41;;;;;;;0.40;0.15;;;21.10;91.90;;;;;;5108862;27;45218;-69
2022/05/25 10:28:21;;;;;;;0.50;0.20;;;21.00;91.90;;;;;;5111878;27;45301;-69
2022/05/25 10:36:47;;;;;;;0.70;0.38;;;21.00;92.10;;;;;;5117719;27;45766;-69
2022/05/25 10:39:25;;;;;;;1.65;0.40;;;21.00;92.30;;;;;;5125307;27;45331;-69
2022/05/25 10:42:08;;;;;;;2.00;0.40;;;21.00;92.70;;;;;;5129229;27;46247;-69
2022/05/25 10:44:47;;;;;;;0.98;0.28;;;21.00;92.70;;;;;;5127217;27;45195;-69
2022/05/25 10:47:30;;;;;;;0.80;0.25;;;21.00;92.80;;;;;;5108643;27;45154;-69
2022/05/25 10:49:58;;;;;;;0.40;0.13;;;21.00;92.90;;;;;;5114194;27;45257;-69
2022/05/25 10:52:33;;;;;;;1.05;0.28;;;21.00;93.10;;;;;;5124018;27;45499;-69
2022/05/25 10:55:00;;;;;;;0.80;0.20;;;21.00;92.90;;;;;;5117237;27;45233;-69
2022/05/25 10:57:51;;;;;;;0.22;0.20;;;20.90;93.10;;;;;;5111019;27;45204;-69
2022/05/25 11:00:21;;;;;;;1.10;0.38;;;20.90;93.00;;;;;;5124497;27;45431;-69
2022/05/25 11:03:07;;;;;;;0.40;0.20;;;21.00;92.90;;;;;;5126251;27;46424;-69
2022/05/25 11:05:42;;;;;;;0.15;0.15;;;21.00;92.70;;;;;;5125141;27;45251;-69
2022/05/25 11:08:21;;;;;;;0.55;0.30;;;21.00;92.50;;;;;;5128395;27;45204;-69
2022/05/25 11:10:55;;;;;;;1.00;0.30;;;21.00;91.90;;;;;;5108453;27;45107;-68
2022/05/25 11:13:42;;;;;;;0.60;0.30;;;21.00;92.00;;;;;;5104617;27;45615;-69
2022/05/25 11:16:29;;;;;;;0.10;0.10;;;21.00;91.30;;;;;;5117002;27;45361;-68
2022/05/25 11:19:16;;;;;;;0.13;0.13;;;21.00;92.30;;;;;;5113260;27;45859;-69
2022/05/25 11:21:54;;;;;;;2.15;0.30;;;21.00;92.30;;;;;;5118823;27;45269;-69
2022/05/25 11:24:36;;;;;;;0.20;0.20;;;21.00;92.40;;;;;;5128142;27;47790;-68
2022/05/25 11:27:17;;;;;;;0.80;0.10;;;21.00;92.20;;;;;;5126118;27;45231;-68
2022/05/25 11:30:01;;;;;;;1.58;0.10;;;21.00;92.30;;;;;;5130100;27;45105;-68
2022/05/25 11:32:38;;;;;;;0.50;0.20;;;21.00;92.70;;;;;;5135731;27;45279;-68
2022/05/25 11:35:21;;;;;;;0.10;0.10;;;21.00;92.30;;;;;;5124166;27;46339;-68
2022/05/25 11:38:01;;;;;;;2.05;0.20;;;20.90;92.50;;;;;;5123139;27;45303;-68
2022/05/25 11:40:41;;;;;;;0.57;0.20;;;21.00;93.10;;;;;;5119256;27;45202;-68
2022/05/25 11:43:30;;;;;;;0.30;0.20;;;20.90;92.60;;;;;;5121644;27;45208;-68
2022/05/25 11:46:02;;;;;;;1.05;0.30;;;20.90;92.80;;;;;;5124939;27;45372;-68
2022/05/25 11:48:46;;;;;;;1.50;0.25;;;21.00;92.90;;;;;;5122612;27;45443;-68
2022/05/25 11:51:22;;;;;;;1.58;0.38;;;21.00;92.90;;;;;;5126128;27;45226;-68
2022/05/25 11:54:17;;;;;;;0.30;0.20;;;21.00;93.20;;;;;;5124126;27;45232;-68
2022/05/25 11:57:02;;;;;;;0.52;0.30;;;21.00;93.00;;;;;;5128160;27;46320;-68
2022/05/25 12:00:03;;;;;;;0.25;0.10;;;21.00;93.00;;;;;;5125226;27;45392;-68
2022/05/25 12:02:50;;;;;;;1.77;0.20;;;21.00;92.80;;;;;;5131295;27;45306;-68
2022/05/25 12:05:24;;;;;;;0.30;0.10;;;21.00;92.60;;;;;;5129320;27;45226;-68
2022/05/25 12:08:30;;;;;;;0.38;0.13;;;21.00;92.50;;;;;;5118740;27;46199;-68
2022/05/25 12:11:07;;;;;;;0.63;0.20;;;21.00;92.50;;;;;;5105492;27;45297;-68
2022/05/25 12:13:39;;;;;;;0.20;0.17;;;21.00;92.60;;;;;;5116841;27;45475;-68
2022/05/25 12:16:14;;;;;;;1.50;0.30;;;21.10;92.50;;;;;;5123821;27;45502;-68
2022/05/25 12:18:49;;;;;;;1.65;0.22;;;21.10;92.20;;;;;;5122069;27;46432;-68
2022/05/25 12:21:19;;;;;;;0.65;0.20;;;21.10;92.60;;;;;;5130730;27;45269;-68
2022/05/25 12:23:50;;;;;;;0.20;0.20;;;21.10;92.50;;;;;;5132049;27;45282;-68
2022/05/25 12:26:23;;;;;;;0.57;0.20;;;21.10;93.00;;;;;;5118977;27;45544;-68
2022/05/25 12:28:53;;;;;;;0.47;0.30;;;21.00;91.90;;;;;;5129111;27;45239;-68
2022/05/25 12:31:24;;;;;;;0.88;0.30;;;21.00;93.00;;;;;;5122348;27;45422;-67
2022/05/25 12:33:53;;;;;;;0.43;0.20;;;21.00;91.80;;;;;;5121987;27;45217;-68
2022/05/25 12:36:21;;;;;;;1.17;0.30;;;21.00;92.50;;;;;;5126246;27;45405;-68
2022/05/25 12:38:48;;;;;;;1.00;0.30;;;21.00;92.30;;;;;;5132359;27;45228;-68
2022/05/25 12:41:31;;;;;;;0.70;0.30;;;21.00;92.10;;;;;;5122036;27;45277;-68
2022/05/25 12:48:30;;;;;;;0.20;0.10;;;21.00;92.30;;;;;;5123569;27;45264;-68
2022/05/25 12:49:44;;;;;;;0.28;0.20;;;21.00;93.20;;;;;;5123661;27;45592;-68
2022/05/25 12:52:41;;;;;;;0.70;0.20;;;21.00;92.40;;;;;;5130727;27;45215;-68
2022/05/25 12:55:21;;;;;;;0.75;0.30;;;21.00;92.30;;;;;;5126227;27;45267;-67
2022/05/25 12:57:51;;;;;;;0.35;0.30;;;21.00;92.40;;;;;;5123948;27;45230;-68
2022/05/25 13:00:22;;;;;;;0.85;0.20;;;21.00;92.60;;;;;;5120978;27;46382;-68
2022/05/25 13:02:50;;;;;;;0.25;0.20;;;21.10;92.50;;;;;;5123282;27;45378;-68
2022/05/25 13:05:55;;;;;;;1.08;0.35;;;21.00;92.30;;;;;;5128936;27;45643;-68
2022/05/25 13:09:06;;;;;;;0.38;0.28;;;21.10;92.40;;;;;;5122326;27;46282;-68
2022/05/25 13:11:42;;;;;;;0.15;0.10;;;21.10;92.40;;;;;;5117857;27;45507;-67
2022/05/25 13:14:43;;;;;;;0.60;0.17;;;21.10;92.10;;;;;;5121545;27;45312;-68
2022/05/25 13:17:30;;;;;;;0.40;0.10;;;21.10;92.00;;;;;;5109206;27;45552;-68
2022/05/25 13:19:57;;;;;;;0.47;0.20;;;21.10;92.20;;;;;;5111965;27;45290;-68
2022/05/25 13:22:27;;;;;;;0.30;0.10;;;21.10;92.00;;;;;;5124179;27;46602;-68
2022/05/25 13:25:16;;;;;;;1.02;0.20;;;21.10;92.00;;;;;;5119934;27;45259;-67
2022/05/25 13:28:02;;;;;;;0.25;0.20;;;21.10;91.70;;;;;;5128499;27;45237;-67
2022/05/25 13:30:44;;;;;;;0.20;0.13;;;21.10;91.50;;;;;;5107920;27;45295;-68
2022/05/25 13:33:24;;;;;;;1.45;0.30;;;21.10;91.10;;;;;;5117972;27;45481;-67
2022/05/25 13:35:54;;;;;;;1.50;0.50;;;21.10;91.50;;;;;;5118658;27;45196;-67
2022/05/25 13:38:26;;;;;;;0.20;0.20;;;21.10;92.00;;;;;;5113781;27;45248;-67
2022/05/25 13:40:57;;;;;;;0.68;0.22;;;21.10;91.70;;;;;;5127821;27;45355;-67